createdAt,value
2023-02-09T00:58:21.678Z,9.18
2023-02-09T01:00:49.875Z,9.60
2023-02-09T01:03:16.997Z,9.50
2023-02-09T01:05:44.457Z,9.07
2023-02-09T01:08:11.900Z,9.55
2023-02-09T01:10:39.151Z,9.20
2023-02-09T13:02:55.078Z,19.45
2023-02-09T13:05:34.212Z,20.58
2023-02-09T13:08:19.412Z,20.60
2023-02-09T13:10:59.367Z,19.00
2023-02-09T13:13:32.793Z,20.52
2023-02-09T13:16:07.052Z,20.13
2023-02-09T13:19:21.566Z,20.60
2023-02-09T13:22:03.991Z,19.90
2023-02-09T13:24:39.505Z,20.27
2023-02-09T13:27:22.223Z,19.88
2023-02-09T13:29:57.271Z,19.42
2023-02-09T13:33:17.883Z,21.38
2023-02-09T13:36:07.120Z,20.10
2023-02-09T13:38:41.208Z,20.17
2023-02-09T13:41:43.900Z,19.85
2023-02-09T13:44:26.378Z,20.00
2023-02-09T13:46:57.276Z,20.55
2023-02-09T13:49:25.733Z,22.73
2023-02-09T13:52:18.018Z,22.65
2023-02-09T13:54:45.092Z,22.00
2023-02-09T13:57:35.535Z,22.15
2023-02-09T14:00:16.871Z,20.45
2023-02-09T14:02:52.595Z,22.17
2023-02-09T14:05:31.104Z,22.13
2023-02-09T14:07:58.264Z,21.50
2023-02-09T14:10:25.760Z,21.75
2023-02-09T14:13:10.404Z,21.73
2023-02-09T14:16:04.153Z,21.92
2023-02-09T14:18:47.932Z,20.95
2023-02-09T14:21:44.197Z,22.15
2023-02-09T14:24:43.058Z,21.60
2023-02-09T14:27:28.550Z,22.27
2023-02-09T14:29:56.074Z,19.92
2023-02-09T14:32:37.010Z,21.48
2023-02-09T14:35:23.709Z,21.77
2023-02-09T14:37:54.064Z,22.00
2023-02-09T14:40:32.092Z,22.65
2023-02-09T14:43:11.217Z,24.00
2023-02-09T14:45:43.502Z,23.48
2023-02-09T14:48:20.894Z,22.20
2023-02-09T16:52:17.917Z,28.50
2023-02-09T21:16:31.894Z,38.45
